Coronel FAP Francisco Secada Vignetta International Airport
SPQT : now visible

Airfield :











YOU CAN JOIN US ON...

 
LOGIN :

Register | Disclaimer

   EN    FR    IT 

 









Legend :    VFR   Marginal VFR   IFR   Intensive IFR   Very Intensive IFR
Visi :
Ceiling :
>= 8 km
>= 3000ft
5 to 8 km
1000 to 3000 ft
1500m to 5 km
500 to 1000 ft
800 to 1500m
200 to 500 ft
< 800m
< 200 ft
Symbols :   Thunderstorms  Fog  Heavy snow  Heavy precipitations  Wind > 20 kt






- Airport Elevation : 306 ft
- IATA code : IQT


SPQT - Coronel FAP Francisco Secada Vignetta International

CURRENT METAR :
  • 091800Z VRB03KT 9999 BKN020 32/24 Q1012 NOSIG RMK BIRD HAZARD PP000

EXPIRED METARs :
  • 091700Z 08006KT 030V120 9999 SCT020 31/24 Q1013 NOSIG RMK BIRD HAZARD PP000
  • 091600Z 02004KT 320V120 9999 FEW015 31/24 Q1014 NOSIG RMK BIRD HAZARD PP000

TAF TAF SPQT
Valid from the 09 at 18:00 until the 10 at 18:00 UTC


091700Z 0918/1018 09004KT 9999 BKN020 TX33/0920Z TN22/1011Z
TEMPO 1003/1007 06012KT 4000 SHRA BKN015 FEW025TCU BKN080
TEMPO 1009/1012 0500 FG BKN003 BKN080
SPIM FIR / South America



MET'MAP, your aeronautical weather chart ! - Copyright ORBIFLY December 2007 - Disclaimer

ORBIFLY MET'MAP TEAM :

Programming & Development : Alexandra Zaïnal
Concept & original design : Baudouin d'Aumeries
Assistance for programming : Marc-Olivier Méhu
Technical & hardware support : Manuel Goepfert

Contact : metmap@orbifly.com




SOURCES & CREDITS :

   NOAA       Earth
Advisory